createdAt,value
2018-01-08T00:00:01.772Z,-0.70
2018-01-08T00:01:04.262Z,-0.70
2018-01-08T00:02:06.771Z,-0.70
2018-01-08T00:03:09.311Z,-0.70
2018-01-08T00:04:11.838Z,-0.70
2018-01-08T00:05:14.332Z,-0.70
2018-01-08T00:06:16.847Z,-0.70
2018-01-08T00:07:19.362Z,-0.70
2018-01-08T00:08:21.866Z,-0.70
2018-01-08T00:09:25.160Z,-0.70
2018-01-08T00:10:28.435Z,-0.70
2018-01-08T00:11:30.969Z,-0.70
2018-01-08T00:12:33.517Z,-0.70
2018-01-08T00:13:36.068Z,-0.70
2018-01-08T00:14:38.563Z,-0.70
2018-01-08T00:15:41.056Z,-0.70
2018-01-08T00:16:43.556Z,-0.60
2018-01-08T00:17:46.057Z,-0.70
2018-01-08T00:18:49.350Z,-0.60
2018-01-08T00:19:51.851Z,-0.60
2018-01-08T00:20:54.353Z,-0.60
2018-01-08T00:21:56.844Z,-0.50
2018-01-08T00:23:00.108Z,-0.50
2018-01-08T00:24:02.624Z,-0.50
2018-01-08T00:25:05.119Z,-0.40
2018-01-08T00:26:07.609Z,-0.40
2018-01-08T00:27:10.102Z,-0.30
2018-01-08T00:28:12.704Z,-0.40
2018-01-08T00:29:15.232Z,-0.30
2018-01-08T00:30:18.646Z,-0.30
2018-01-08T00:32:24.990Z,-0.20
2018-01-08T00:33:27.480Z,-0.20
2018-01-08T00:34:30.011Z,-0.20
2018-01-08T00:35:32.524Z,-0.10
2018-01-08T00:36:35.021Z,-0.10
2018-01-08T00:37:37.515Z,-0.10
2018-01-08T00:38:40.010Z,-0.10
2018-01-08T00:39:43.047Z,-0.10
2018-01-08T00:42:24.774Z,-0.10
2018-01-08T00:43:27.282Z,-0.10
2018-01-08T00:44:29.766Z,-0.10
2018-01-08T00:45:33.020Z,-0.10
2018-01-08T00:46:36.228Z,-0.10
2018-01-08T00:47:38.737Z,-0.10
2018-01-08T00:48:41.225Z,-0.10
2018-01-08T00:49:43.686Z,-0.10
2018-01-08T00:50:46.180Z,0.00
2018-01-08T00:51:48.676Z,0.00
2018-01-08T00:52:51.153Z,0.00
2018-01-08T00:53:54.411Z,-0.10
2018-01-08T00:54:56.909Z,0.00
2018-01-08T00:55:59.389Z,0.00
2018-01-08T00:57:01.899Z,0.00
2018-01-08T00:58:04.376Z,0.00
2018-01-08T00:59:06.891Z,0.00
2018-01-08T01:00:09.365Z,0.00
2018-01-08T01:01:12.630Z,0.00
2018-01-08T01:02:15.345Z,0.00
2018-01-08T01:03:18.632Z,0.00
2018-01-08T01:04:21.920Z,0.00
2018-01-08T01:05:24.386Z,0.00
2018-01-08T01:06:27.651Z,0.00
2018-01-08T01:07:30.131Z,-0.10
2018-01-08T01:08:32.617Z,0.00
2018-01-08T01:09:35.873Z,0.00
2018-01-08T01:10:38.360Z,0.00
2018-01-08T01:11:40.836Z,0.00
2018-01-08T01:12:44.076Z,0.00
2018-01-08T01:13:46.568Z,0.00
2018-01-08T01:14:49.157Z,0.00
2018-01-08T01:15:51.641Z,0.00
2018-01-08T01:16:54.134Z,0.00
2018-01-08T01:17:56.608Z,0.00
2018-01-08T01:18:59.119Z,0.00
2018-01-08T01:20:01.619Z,0.00
2018-01-08T01:21:05.195Z,0.00
2018-01-08T01:22:07.671Z,0.00
2018-01-08T01:23:10.169Z,0.10
2018-01-08T01:24:12.684Z,0.10
2018-01-08T01:25:15.173Z,0.10
2018-01-08T01:26:17.656Z,0.10
2018-01-08T01:27:20.130Z,0.10
2018-01-08T01:28:23.418Z,0.10
2018-01-08T01:29:25.878Z,0.00
2018-01-08T01:30:28.366Z,0.10
2018-01-08T01:31:31.674Z,0.00
2018-01-08T01:32:34.211Z,0.00
2018-01-08T01:33:36.685Z,0.00
2018-01-08T01:34:39.176Z,0.10
2018-01-08T01:35:42.424Z,0.00
2018-01-08T01:36:44.913Z,0.00
2018-01-08T01:37:47.385Z,0.00
2018-01-08T01:38:49.872Z,0.00
2018-01-08T01:39:52.377Z,0.10
2018-01-08T01:40:54.888Z,0.10
2018-01-08T01:41:57.381Z,0.10
2018-01-08T01:43:00.648Z,0.10
2018-01-08T01:44:03.137Z,0.10
2018-01-08T01:45:06.384Z,0.10
2018-01-08T01:46:08.885Z,0.10
2018-01-08T01:47:11.366Z,0.10
2018-01-08T01:48:13.869Z,0.20
2018-01-08T01:49:21.176Z,0.20
2018-01-08T01:50:23.652Z,0.20
2018-01-08T01:51:26.218Z,0.20
2018-01-08T01:52:28.742Z,0.20
2018-01-08T01:53:32.429Z,0.30
2018-01-08T01:54:35.895Z,0.20
2018-01-08T01:55:38.369Z,0.20
2018-01-08T01:56:40.864Z,0.20
2018-01-08T01:57:43.680Z,0.20
2018-01-08T01:58:46.150Z,0.30
2018-01-08T01:59:48.626Z,0.20
2018-01-08T02:00:51.109Z,0.20
2018-01-08T02:01:53.580Z,0.20
2018-01-08T02:02:56.166Z,0.20
2018-01-08T02:03:58.649Z,0.20
2018-01-08T02:05:01.136Z,0.20
2018-01-08T02:06:04.394Z,0.20
2018-01-08T02:07:06.874Z,0.20
2018-01-08T02:08:09.364Z,0.30
2018-01-08T02:09:12.730Z,0.30
2018-01-08T02:10:15.237Z,0.20
2018-01-08T02:11:17.713Z,0.30
2018-01-08T02:12:20.214Z,0.30
2018-01-08T02:13:22.695Z,0.30
2018-01-08T02:14:25.192Z,0.30
2018-01-08T02:28:17.688Z,0.30
2018-01-08T02:29:20.945Z,0.30
2018-01-08T02:30:23.432Z,0.30
2018-01-08T02:31:25.904Z,0.30
2018-01-08T02:32:29.123Z,0.30
2018-01-08T02:33:32.397Z,0.30
2018-01-08T02:34:35.656Z,0.30
2018-01-08T02:35:38.130Z,0.30
2018-01-08T02:36:40.603Z,0.40
2018-01-08T02:37:43.087Z,0.40
2018-01-08T02:38:45.566Z,0.40
2018-01-08T02:39:48.827Z,0.40
2018-01-08T02:40:51.778Z,0.40
2018-01-08T02:41:54.305Z,0.40
2018-01-08T02:42:56.784Z,0.40
2018-01-08T02:43:59.268Z,0.40
2018-01-08T02:45:02.358Z,0.40
2018-01-08T02:46:05.730Z,0.40
2018-01-08T02:47:08.425Z,0.40
2018-01-08T02:48:11.181Z,0.40
2018-01-08T02:49:13.680Z,0.40
2018-01-08T02:50:16.151Z,0.40
2018-01-08T02:51:18.637Z,0.40
2018-01-08T02:52:21.110Z,0.40
2018-01-08T02:53:23.610Z,0.40
2018-01-08T02:54:26.325Z,0.40
2018-01-08T02:55:31.511Z,0.50
2018-01-08T02:56:34.103Z,0.50
2018-01-08T02:57:37.349Z,0.50
2018-01-08T02:58:40.604Z,0.50
2018-01-08T02:59:43.101Z,0.50
2018-01-08T03:00:45.568Z,0.50
2018-01-08T03:01:48.040Z,0.50
2018-01-08T03:02:50.521Z,0.50
2018-01-08T03:03:53.068Z,0.50
2018-01-08T03:04:55.754Z,0.50
2018-01-08T03:05:58.251Z,0.50
2018-01-08T03:07:00.744Z,0.50
2018-01-08T03:08:03.227Z,0.50
2018-01-08T03:09:06.548Z,0.50
2018-01-08T03:10:09.046Z,0.50
2018-01-08T03:11:11.526Z,0.50
2018-01-08T03:12:14.013Z,0.50
2018-01-08T03:13:16.487Z,0.50
2018-01-08T03:14:19.880Z,0.50
2018-01-08T03:15:22.356Z,0.50
2018-01-08T03:16:26.335Z,0.60
2018-01-08T03:17:28.839Z,0.50
2018-01-08T03:18:32.105Z,0.50
2018-01-08T03:19:34.593Z,0.50
2018-01-08T03:20:37.862Z,0.60
2018-01-08T03:21:40.352Z,0.60
2018-01-08T03:22:43.612Z,0.60
2018-01-08T03:23:46.089Z,0.50
2018-01-08T03:24:48.585Z,0.50
2018-01-08T03:25:51.819Z,0.60
2018-01-08T03:26:54.362Z,0.50
2018-01-08T03:27:57.388Z,0.60
2018-01-08T03:29:00.748Z,0.60
2018-01-08T03:30:04.001Z,0.50
2018-01-08T03:31:07.627Z,0.50
2018-01-08T03:32:10.137Z,0.50
2018-01-08T03:33:12.609Z,0.60
2018-01-08T03:34:16.208Z,0.60
2018-01-08T03:35:18.682Z,0.60
2018-01-08T03:36:21.179Z,0.50
2018-01-08T03:37:23.652Z,0.50
2018-01-08T03:38:26.134Z,0.50
2018-01-08T03:39:28.598Z,0.50
2018-01-08T03:40:31.087Z,0.50
2018-01-08T03:41:33.577Z,0.50
2018-01-08T03:42:36.057Z,0.50
2018-01-08T03:43:38.534Z,0.60
2018-01-08T03:44:41.017Z,0.60
2018-01-08T03:45:43.508Z,0.60
2018-01-08T03:46:46.081Z,0.50
2018-01-08T03:47:49.321Z,0.60
2018-01-08T03:48:51.783Z,0.60
2018-01-08T03:49:54.247Z,0.60
2018-01-08T03:50:56.728Z,0.60
2018-01-08T03:52:00.006Z,0.60
2018-01-08T03:53:03.278Z,0.60
2018-01-08T03:54:05.754Z,0.50
2018-01-08T03:55:08.234Z,0.50
2018-01-08T03:56:11.476Z,0.50
2018-01-08T03:57:13.941Z,0.50
2018-01-08T03:58:16.420Z,0.50
2018-01-08T03:59:19.135Z,0.50
2018-01-08T04:00:21.614Z,0.50
2018-01-08T04:01:25.086Z,0.60
2018-01-08T04:02:27.578Z,0.50
2018-01-08T04:03:31.060Z,0.50
2018-01-08T04:04:33.540Z,0.50
2018-01-08T04:05:36.800Z,0.50
2018-01-08T04:06:39.259Z,0.60
2018-01-08T04:07:41.759Z,0.60
2018-01-08T04:08:44.258Z,0.60
2018-01-08T04:09:46.749Z,0.60
2018-01-08T04:10:49.224Z,0.60
2018-01-08T04:11:51.713Z,0.60
2018-01-08T04:12:54.234Z,0.60
2018-01-08T04:13:56.785Z,0.60
2018-01-08T04:14:59.272Z,0.60
2018-01-08T04:16:02.519Z,0.60
2018-01-08T04:17:04.993Z,0.60
2018-01-08T04:18:07.525Z,0.60
2018-01-08T04:19:10.462Z,0.60
2018-01-08T04:20:12.939Z,0.60
2018-01-08T04:21:16.292Z,0.60
2018-01-08T04:22:18.772Z,0.60
2018-01-08T04:23:21.325Z,0.60
2018-01-08T04:24:24.441Z,0.60
2018-01-08T04:25:26.954Z,0.60
2018-01-08T04:26:29.414Z,0.70
2018-01-08T04:27:31.894Z,0.70
2018-01-08T04:28:34.369Z,0.60
2018-01-08T04:29:36.849Z,0.60
2018-01-08T04:30:39.325Z,0.60
2018-01-08T04:31:41.809Z,0.60
2018-01-08T04:32:44.281Z,0.60
2018-01-08T04:33:46.782Z,0.60
2018-01-08T04:34:49.312Z,0.60
2018-01-08T04:35:51.805Z,0.70
2018-01-08T04:36:54.325Z,0.70
2018-01-08T04:37:56.820Z,0.70
2018-01-08T04:38:59.295Z,0.70
2018-01-08T04:40:02.257Z,0.70
2018-01-08T04:41:04.749Z,0.70
2018-01-08T04:42:07.565Z,0.70
2018-01-08T04:43:10.060Z,0.70
2018-01-08T04:44:12.554Z,0.70
2018-01-08T04:45:15.083Z,0.70
2018-01-08T04:46:18.317Z,0.70
2018-01-08T04:47:20.802Z,0.70
2018-01-08T04:48:23.276Z,0.70
2018-01-08T04:49:25.748Z,0.70
2018-01-08T04:50:28.977Z,0.70
2018-01-08T04:51:32.217Z,0.70
2018-01-08T04:52:34.700Z,0.70
2018-01-08T04:53:37.187Z,0.70
2018-01-08T04:54:39.733Z,0.70
2018-01-08T04:55:42.237Z,0.70
2018-01-08T04:56:45.473Z,0.70
2018-01-08T04:57:47.961Z,0.70
2018-01-08T04:58:50.446Z,0.70
2018-01-08T04:59:53.171Z,0.70
2018-01-08T05:00:56.508Z,0.70
2018-01-08T05:01:58.996Z,0.70
2018-01-08T05:03:01.476Z,0.70
2018-01-08T05:04:04.745Z,0.70
2018-01-08T05:05:07.220Z,0.60
2018-01-08T05:06:09.717Z,0.70
2018-01-08T05:07:12.263Z,0.70
2018-01-08T05:08:15.522Z,0.70
2018-01-08T05:09:18.012Z,0.70
2018-01-08T05:10:20.485Z,0.70
2018-01-08T05:11:22.980Z,0.70
2018-01-08T05:12:26.247Z,0.60
2018-01-08T05:13:28.720Z,0.60
2018-01-08T05:14:31.187Z,0.70
2018-01-08T05:15:33.678Z,0.70
2018-01-08T05:16:37.396Z,0.70
2018-01-08T05:17:39.896Z,0.70
2018-01-08T05:18:42.364Z,0.70
2018-01-08T05:19:44.869Z,0.70
2018-01-08T05:20:47.349Z,0.70
2018-01-08T05:21:50.679Z,0.70
2018-01-08T05:22:53.143Z,0.70
2018-01-08T05:23:56.114Z,0.70
2018-01-08T05:24:58.597Z,0.70
2018-01-08T05:26:01.076Z,0.70
2018-01-08T05:27:03.581Z,0.70
2018-01-08T05:28:06.132Z,0.70
2018-01-08T05:29:08.624Z,0.70
2018-01-08T05:30:11.092Z,0.70
2018-01-08T05:31:13.575Z,0.70
2018-01-08T05:32:16.097Z,0.70
2018-01-08T05:33:18.613Z,0.70
2018-01-08T05:34:21.081Z,0.70
2018-01-08T05:35:24.499Z,0.70
2018-01-08T05:36:27.065Z,0.70
2018-01-08T05:37:31.051Z,0.70
2018-01-08T05:38:33.543Z,0.70
2018-01-08T05:39:36.787Z,0.80
2018-01-08T05:40:39.354Z,0.70
2018-01-08T05:41:41.819Z,0.80
2018-01-08T05:42:44.308Z,0.70
2018-01-08T05:43:47.914Z,0.80
2018-01-08T05:44:50.404Z,0.80
2018-01-08T05:45:53.654Z,0.80
2018-01-08T05:46:56.130Z,0.80
2018-01-08T05:47:58.605Z,0.80
2018-01-08T05:49:01.114Z,0.80
2018-01-08T05:50:04.382Z,0.80
2018-01-08T05:51:06.868Z,0.80
2018-01-08T05:52:09.370Z,0.80
2018-01-08T05:53:11.844Z,0.80
2018-01-08T05:54:14.365Z,0.80
2018-01-08T05:55:17.701Z,0.80
2018-01-08T05:56:20.180Z,0.80
2018-01-08T05:57:22.653Z,0.70
2018-01-08T05:58:25.130Z,0.70
2018-01-08T05:59:27.602Z,0.80
2018-01-08T06:00:30.139Z,0.70
2018-01-08T06:01:32.618Z,0.70
2018-01-08T06:02:35.112Z,0.70
2018-01-08T06:03:37.653Z,0.80
2018-01-08T06:04:40.236Z,0.70
2018-01-08T06:05:42.743Z,0.70
2018-01-08T06:06:45.285Z,0.70
2018-01-08T06:07:48.577Z,0.70
2018-01-08T06:08:51.096Z,0.70
2018-01-08T06:09:53.612Z,0.70
2018-01-08T06:10:56.200Z,0.70
2018-01-08T06:11:58.677Z,0.70
2018-01-08T06:13:01.220Z,0.60
2018-01-08T06:14:03.715Z,0.70
2018-01-08T06:24:46.980Z,0.40
2018-01-08T06:25:49.453Z,0.40
2018-01-08T06:26:51.949Z,0.40
2018-01-08T06:27:54.441Z,0.40
2018-01-08T06:28:56.928Z,0.40
2018-01-08T06:29:59.425Z,0.30
2018-01-08T06:31:01.916Z,0.30
2018-01-08T06:32:05.223Z,0.20
2018-01-08T06:33:07.718Z,0.20
2018-01-08T06:34:10.286Z,0.20
2018-01-08T06:35:12.780Z,0.20
2018-01-08T06:36:15.274Z,0.20
2018-01-08T06:37:17.781Z,0.10
2018-01-08T06:38:20.288Z,0.10
2018-01-08T06:39:22.765Z,0.10
2018-01-08T06:40:25.276Z,0.00
2018-01-08T06:41:28.551Z,0.00
2018-01-08T06:42:31.050Z,0.00
2018-01-08T06:43:33.558Z,0.00
2018-01-08T06:44:37.314Z,-0.10
2018-01-08T06:45:39.818Z,-0.10
2018-01-08T06:46:42.307Z,-0.10
2018-01-08T06:47:45.387Z,-0.10
2018-01-08T06:48:47.869Z,-0.10
2018-01-08T06:49:50.343Z,-0.10
2018-01-08T06:50:52.812Z,-0.10
2018-01-08T06:51:55.316Z,-0.10
2018-01-08T06:52:57.809Z,-0.10
2018-01-08T06:54:00.892Z,-0.10
2018-01-08T06:55:03.376Z,-0.10
2018-01-08T06:56:05.852Z,-0.20
2018-01-08T06:57:08.355Z,-0.20
2018-01-08T06:58:10.897Z,-0.20
2018-01-08T06:59:13.394Z,-0.20
2018-01-08T07:00:15.950Z,-0.20
2018-01-08T07:01:18.424Z,-0.20
2018-01-08T07:02:20.913Z,-0.20
2018-01-08T07:03:23.403Z,-0.20
2018-01-08T07:04:25.906Z,-0.20
2018-01-08T07:05:28.380Z,-0.30
2018-01-08T07:06:30.871Z,-0.30
2018-01-08T07:07:33.364Z,-0.30
2018-01-08T07:08:35.844Z,-0.30
2018-01-08T07:09:39.129Z,-0.30
2018-01-08T07:10:41.612Z,-0.40
2018-01-08T07:11:44.874Z,-0.40
2018-01-08T07:12:47.417Z,-0.40
2018-01-08T07:13:49.932Z,-0.40
2018-01-08T07:14:52.427Z,-0.40
2018-01-08T07:15:54.937Z,-0.40
2018-01-08T07:16:57.468Z,-0.40
2018-01-08T07:17:59.973Z,-0.40
2018-01-08T07:19:02.481Z,-0.40
2018-01-08T07:20:04.989Z,-0.40
2018-01-08T07:21:07.466Z,-0.40
2018-01-08T07:22:09.986Z,-0.40
2018-01-08T07:23:12.470Z,-0.50
2018-01-08T07:24:15.467Z,-0.50
2018-01-08T07:25:18.729Z,-0.50
2018-01-08T07:26:21.268Z,-0.50
2018-01-08T07:27:23.774Z,-0.50
2018-01-08T07:28:26.271Z,-0.50
2018-01-08T07:29:29.732Z,-0.50
2018-01-08T07:30:33.013Z,-0.50
2018-01-08T07:31:35.486Z,-0.50
2018-01-08T07:32:37.978Z,-0.50
2018-01-08T07:33:41.238Z,-0.50
2018-01-08T07:34:43.719Z,-0.50
2018-01-08T07:35:47.084Z,-0.50
2018-01-08T07:36:49.592Z,-0.50
2018-01-08T07:37:52.073Z,-0.50
2018-01-08T07:38:54.544Z,-0.50
2018-01-08T07:39:57.024Z,-0.50
2018-01-08T07:40:59.744Z,-0.50
2018-01-08T07:42:02.244Z,-0.50
2018-01-08T07:43:04.729Z,-0.50
2018-01-08T07:44:07.971Z,-0.50
2018-01-08T07:58:01.058Z,-0.60
2018-01-08T07:59:03.554Z,-0.60
2018-01-08T08:00:06.755Z,-0.60
2018-01-08T08:01:09.256Z,-0.60
2018-01-08T08:02:11.749Z,-0.50
2018-01-08T08:03:15.029Z,-0.50
2018-01-08T08:04:17.536Z,-0.50
2018-01-08T08:05:20.532Z,-0.50
2018-01-08T08:06:23.037Z,-0.50
2018-01-08T08:07:25.800Z,-0.50
2018-01-08T08:08:28.295Z,-0.50
2018-01-08T08:09:30.868Z,-0.50
2018-01-08T08:10:33.355Z,-0.50
2018-01-08T08:11:35.861Z,-0.50
2018-01-08T08:12:38.343Z,-0.50
2018-01-08T08:13:40.839Z,-0.40
2018-01-08T08:14:43.325Z,-0.40
2018-01-08T08:15:45.814Z,-0.40
2018-01-08T08:16:48.289Z,-0.40
2018-01-08T08:17:50.781Z,-0.40
2018-01-08T08:18:53.274Z,-0.40
2018-01-08T08:19:56.100Z,-0.40
2018-01-08T08:20:58.584Z,-0.40
2018-01-08T08:22:01.930Z,-0.40
2018-01-08T08:23:05.197Z,-0.40
2018-01-08T08:24:07.699Z,-0.40
2018-01-08T08:25:10.204Z,-0.40
2018-01-08T08:26:12.697Z,-0.40
2018-01-08T08:27:15.179Z,-0.30
2018-01-08T08:28:17.685Z,-0.30
2018-01-08T08:29:20.183Z,-0.30
2018-01-08T08:30:22.679Z,-0.30
2018-01-08T08:31:25.592Z,-0.30
2018-01-08T08:32:28.089Z,-0.20
2018-01-08T08:33:30.582Z,-0.30
2018-01-08T08:34:33.077Z,-0.20
2018-01-08T08:35:35.563Z,-0.20
2018-01-08T08:36:38.827Z,-0.20
2018-01-08T08:37:41.332Z,-0.20
2018-01-08T08:38:44.594Z,-0.20
2018-01-08T08:39:47.082Z,-0.20
2018-01-08T08:40:50.361Z,-0.10
2018-01-08T08:41:53.659Z,-0.10
2018-01-08T08:42:56.914Z,-0.10
2018-01-08T08:43:59.396Z,-0.10
2018-01-08T08:45:01.920Z,-0.10
2018-01-08T08:46:04.418Z,-0.10
2018-01-08T08:47:06.914Z,-0.10
2018-01-08T08:48:09.745Z,0.00
2018-01-08T08:49:12.246Z,0.00
2018-01-08T08:50:14.733Z,0.00
2018-01-08T08:51:17.238Z,0.00
2018-01-08T08:52:19.734Z,0.00
2018-01-08T08:53:22.201Z,0.00
2018-01-08T08:54:24.683Z,0.00
2018-01-08T08:55:27.175Z,0.10
2018-01-08T08:56:30.219Z,-0.20
2018-01-08T08:57:32.702Z,0.10
2018-01-08T08:58:35.203Z,0.10
2018-01-08T08:59:37.731Z,0.10
2018-01-08T09:00:40.288Z,0.10
2018-01-08T09:01:43.537Z,0.20
2018-01-08T09:02:46.147Z,0.10
2018-01-08T09:03:48.665Z,0.20
2018-01-08T09:04:51.153Z,0.20
2018-01-08T09:05:53.760Z,0.10
2018-01-08T09:06:56.253Z,0.20
2018-01-08T09:07:58.740Z,0.20
2018-01-08T09:09:01.232Z,0.20
2018-01-08T09:10:03.819Z,0.20
2018-01-08T09:11:06.953Z,0.20
2018-01-08T09:12:09.469Z,0.20
2018-01-08T09:13:12.001Z,0.20
2018-01-08T09:14:14.517Z,0.20
2018-01-08T09:15:16.989Z,0.30
2018-01-08T09:16:19.478Z,0.30
2018-01-08T09:17:23.559Z,0.30
2018-01-08T09:18:26.049Z,0.30
2018-01-08T09:19:29.315Z,0.40
2018-01-08T09:20:31.792Z,0.30
2018-01-08T09:21:34.280Z,0.40
2018-01-08T09:22:36.785Z,0.40
2018-01-08T09:23:39.281Z,0.40
2018-01-08T09:24:41.825Z,0.40
2018-01-08T09:25:44.304Z,0.40
2018-01-08T09:26:46.801Z,0.40
2018-01-08T09:27:49.714Z,0.40
2018-01-08T09:28:52.417Z,0.40
2018-01-08T09:29:54.932Z,0.50
2018-01-08T09:30:57.409Z,0.50
2018-01-08T09:31:59.895Z,0.50
2018-01-08T09:33:03.181Z,0.50
2018-01-08T09:34:06.423Z,0.50
2018-01-08T09:35:09.628Z,0.80
2018-01-08T09:36:12.182Z,0.50
2018-01-08T09:37:14.747Z,0.50
2018-01-08T09:38:17.834Z,0.60
2018-01-08T09:39:20.439Z,0.60
2018-01-08T09:40:23.757Z,0.60
2018-01-08T09:41:26.936Z,0.60
2018-01-08T09:42:31.056Z,0.70
2018-01-08T09:43:33.944Z,0.60
2018-01-08T09:44:38.714Z,0.70
2018-01-08T09:45:41.209Z,0.70
2018-01-08T09:46:43.787Z,0.70
2018-01-08T09:47:46.501Z,0.70
2018-01-08T09:48:51.819Z,0.70
2018-01-08T09:49:55.645Z,0.80
2018-01-08T09:50:58.378Z,0.80
2018-01-08T09:52:00.876Z,0.80
2018-01-08T09:53:03.357Z,0.80
2018-01-08T09:54:05.986Z,0.80
2018-01-08T09:55:09.329Z,0.80
2018-01-08T09:56:11.839Z,0.80
2018-01-08T09:57:14.323Z,0.90
2018-01-08T09:58:17.588Z,0.90
2018-01-08T09:59:20.165Z,0.90
2018-01-08T10:00:22.754Z,1.00
2018-01-08T10:01:26.857Z,1.00
2018-01-08T10:02:28.851Z,1.00
2018-01-08T10:03:43.175Z,1.00
2018-01-08T10:04:58.141Z,1.00
2018-01-08T10:06:13.142Z,1.00
2018-01-08T10:07:28.968Z,1.00
2018-01-08T10:08:43.134Z,1.10
2018-01-08T10:09:58.230Z,1.20
2018-01-08T10:11:12.378Z,1.10
2018-01-08T10:12:26.782Z,1.20
2018-01-08T10:13:40.871Z,1.20
2018-01-08T10:14:54.970Z,1.20
2018-01-08T10:16:09.170Z,1.30
2018-01-08T10:17:24.122Z,1.30
2018-01-08T10:18:26.449Z,1.30
2018-01-08T10:19:41.305Z,1.30
2018-01-08T10:20:43.843Z,1.30
2018-01-08T10:21:46.365Z,1.40
2018-01-08T10:22:49.653Z,1.40
2018-01-08T10:23:52.939Z,1.60
2018-01-08T10:24:55.450Z,1.40
2018-01-08T10:25:58.205Z,1.50
2018-01-08T10:27:00.695Z,1.50
2018-01-08T10:28:03.762Z,1.50
2018-01-08T10:29:06.263Z,1.50
2018-01-08T10:30:09.078Z,1.50
2018-01-08T10:31:12.395Z,1.60
2018-01-08T10:32:15.043Z,1.60
2018-01-08T10:33:17.512Z,1.60
2018-01-08T10:34:20.044Z,1.70
2018-01-08T10:35:22.536Z,1.70
2018-01-08T10:36:25.263Z,1.70
2018-01-08T10:37:28.541Z,1.70
2018-01-08T10:38:31.117Z,1.80
2018-01-08T10:39:33.664Z,1.80
2018-01-08T10:40:36.917Z,1.90
2018-01-08T10:41:44.945Z,1.80
2018-01-08T10:42:52.960Z,1.90
2018-01-08T10:44:01.729Z,1.90
2018-01-08T10:45:09.914Z,1.90
2018-01-08T10:46:17.987Z,2.00
2018-01-08T10:47:26.941Z,2.00
2018-01-08T10:48:34.954Z,2.00
2018-01-08T10:49:43.370Z,2.00
2018-01-08T10:50:51.479Z,2.00
2018-01-08T10:51:53.515Z,2.10
2018-01-08T10:52:58.695Z,2.10
2018-01-08T10:54:01.238Z,2.10
2018-01-08T10:55:08.028Z,2.20
2018-01-08T10:56:10.574Z,2.30
2018-01-08T10:57:13.085Z,2.30
2018-01-08T10:58:15.583Z,2.30
2018-01-08T10:59:18.841Z,2.30
2018-01-08T11:00:21.354Z,2.30
2018-01-08T11:01:29.630Z,2.40
2018-01-08T11:02:38.593Z,2.40
2018-01-08T11:03:46.640Z,2.40
2018-01-08T11:04:49.122Z,2.40
2018-01-08T11:05:52.381Z,2.40
2018-01-08T11:06:54.866Z,2.40
2018-01-08T11:07:57.361Z,2.50
2018-01-08T11:09:00.644Z,2.50
2018-01-08T11:10:03.898Z,2.50
2018-01-08T11:11:06.376Z,2.50
2018-01-08T11:12:08.884Z,2.50
2018-01-08T11:13:12.131Z,2.60
2018-01-08T11:14:15.736Z,2.60
2018-01-08T11:15:18.299Z,2.70
2018-01-08T11:16:20.792Z,2.70
2018-01-08T11:17:23.294Z,2.70
2018-01-08T11:18:26.669Z,2.70
2018-01-08T11:19:29.924Z,2.80
2018-01-08T11:20:32.418Z,2.80
2018-01-08T11:21:34.884Z,2.80
2018-01-08T11:22:37.414Z,2.80
2018-01-08T11:23:39.927Z,2.90
2018-01-08T11:24:43.190Z,3.00
2018-01-08T11:25:45.679Z,3.00
2018-01-08T11:26:48.266Z,3.00
2018-01-08T11:27:51.787Z,3.00
2018-01-08T11:28:54.292Z,3.10
2018-01-08T11:29:56.809Z,3.10
2018-01-08T11:30:59.313Z,3.10
2018-01-08T11:32:01.825Z,3.10
2018-01-08T11:33:04.335Z,3.10
2018-01-08T11:34:06.948Z,3.20
2018-01-08T11:35:09.462Z,3.20
2018-01-08T11:36:12.701Z,3.20
2018-01-08T11:37:15.183Z,3.20
2018-01-08T11:38:18.269Z,3.20
2018-01-08T11:39:20.740Z,3.30
2018-01-08T11:40:23.230Z,3.30
2018-01-08T11:41:25.749Z,3.30
2018-01-08T11:42:28.221Z,3.40
2018-01-08T11:43:30.728Z,3.30
2018-01-08T11:44:34.099Z,3.40
2018-01-08T11:45:37.685Z,3.40
2018-01-08T11:46:40.224Z,3.40
2018-01-08T11:47:43.462Z,3.40
2018-01-08T11:48:45.959Z,3.40
2018-01-08T11:49:48.470Z,3.50
2018-01-08T11:50:50.995Z,3.50
2018-01-08T11:51:53.501Z,3.50
2018-01-08T11:52:56.770Z,3.50
2018-01-08T11:54:00.100Z,3.60
2018-01-08T11:55:02.577Z,3.60
2018-01-08T11:56:05.104Z,3.60
2018-01-08T11:57:08.339Z,3.60
2018-01-08T11:58:10.828Z,3.60
2018-01-08T11:59:13.531Z,3.60
2018-01-08T12:00:16.024Z,3.60
2018-01-08T12:01:19.326Z,3.70
2018-01-08T12:02:21.844Z,3.70
2018-01-08T12:03:24.355Z,3.70
2018-01-08T12:04:26.872Z,3.70
2018-01-08T12:05:29.379Z,3.70
2018-01-08T12:06:32.660Z,3.80
2018-01-08T12:07:35.934Z,3.80
2018-01-08T12:08:38.434Z,3.80
2018-01-08T12:09:40.944Z,3.80
2018-01-08T12:10:43.424Z,3.80
2018-01-08T12:11:46.269Z,3.90
2018-01-08T12:12:48.738Z,3.90
2018-01-08T12:13:51.211Z,3.90
2018-01-08T12:14:53.701Z,4.00
2018-01-08T12:15:56.181Z,4.00
2018-01-08T12:16:58.676Z,4.00
2018-01-08T12:18:01.185Z,4.00
2018-01-08T12:19:03.653Z,4.00
2018-01-08T12:20:06.171Z,4.00
2018-01-08T12:21:08.637Z,4.00
2018-01-08T12:22:11.905Z,4.00
2018-01-08T12:23:14.380Z,4.00
2018-01-08T12:24:17.086Z,4.00
2018-01-08T12:25:19.569Z,4.00
2018-01-08T12:26:22.066Z,4.00
2018-01-08T12:27:24.557Z,4.10
2018-01-08T12:28:27.056Z,4.10
2018-01-08T12:29:29.566Z,4.10
2018-01-08T12:30:32.827Z,4.10
2018-01-08T12:31:35.417Z,4.20
2018-01-08T12:32:38.678Z,4.20
2018-01-08T12:33:41.210Z,4.20
2018-01-08T12:34:43.747Z,4.20
2018-01-08T12:35:46.237Z,4.30
2018-01-08T12:36:48.753Z,4.30
2018-01-08T12:37:51.241Z,4.30
2018-01-08T12:38:53.737Z,4.30
2018-01-08T12:39:56.224Z,4.40
2018-01-08T12:40:58.724Z,4.40
2018-01-08T12:42:01.209Z,4.40
2018-01-08T12:43:03.703Z,4.40
2018-01-08T12:44:07.152Z,4.50
2018-01-08T12:45:09.650Z,4.50
2018-01-08T12:46:12.150Z,4.50
2018-01-08T12:47:15.396Z,4.60
2018-01-08T12:48:17.889Z,4.50
2018-01-08T12:49:20.396Z,4.60
2018-01-08T12:50:22.895Z,4.50
2018-01-08T12:51:27.853Z,4.60
2018-01-08T12:52:32.189Z,4.60
2018-01-08T12:53:34.743Z,4.60
2018-01-08T12:54:38.561Z,4.60
2018-01-08T12:55:43.619Z,4.60
2018-01-08T12:56:46.105Z,4.60
2018-01-08T12:57:48.663Z,4.60
2018-01-08T12:58:51.148Z,4.60
2018-01-08T12:59:55.662Z,4.60
2018-01-08T13:00:59.567Z,4.60
2018-01-08T13:02:03.027Z,4.60
2018-01-08T13:03:05.541Z,4.60
2018-01-08T13:04:08.021Z,4.70
2018-01-08T13:05:11.060Z,4.60
2018-01-08T13:06:13.548Z,4.60
2018-01-08T13:07:20.841Z,4.60
2018-01-08T13:08:23.342Z,4.70
2018-01-08T13:09:25.850Z,4.70
2018-01-08T13:10:28.379Z,4.70
2018-01-08T13:11:31.031Z,4.60
2018-01-08T13:12:33.519Z,4.60
2018-01-08T13:13:35.993Z,4.60
2018-01-08T13:14:38.720Z,4.60
2018-01-08T13:15:41.294Z,4.60
2018-01-08T13:16:43.800Z,4.60
2018-01-08T13:17:46.297Z,4.60
2018-01-08T13:18:48.798Z,4.70
2018-01-08T13:19:51.279Z,4.60
2018-01-08T13:20:53.777Z,4.60
2018-01-08T13:21:57.033Z,4.60
2018-01-08T13:35:49.550Z,4.60
2018-01-08T13:36:52.059Z,4.60
2018-01-08T13:37:54.576Z,4.60
2018-01-08T13:51:47.329Z,4.60
2018-01-08T13:52:49.833Z,4.40
2018-01-08T13:53:52.403Z,4.40
2018-01-08T13:54:54.901Z,4.30
2018-01-08T13:55:57.432Z,4.30
2018-01-08T13:56:59.963Z,4.30
2018-01-08T13:58:03.247Z,4.30
2018-01-08T13:59:05.827Z,4.30
2018-01-08T14:00:08.383Z,4.30
2018-01-08T14:01:10.880Z,4.30
2018-01-08T14:02:13.378Z,4.30
2018-01-08T14:03:15.975Z,4.30
2018-01-08T14:04:18.475Z,4.30
2018-01-08T14:05:21.803Z,4.30
2018-01-08T14:06:24.505Z,4.30
2018-01-08T14:07:27.007Z,4.30
2018-01-08T14:08:30.408Z,4.20
2018-01-08T14:09:33.658Z,4.20
2018-01-08T14:10:36.165Z,4.20
2018-01-08T14:11:38.720Z,4.20
2018-01-08T14:12:42.998Z,4.20
2018-01-08T14:13:45.576Z,4.20
2018-01-08T14:14:48.097Z,4.20
2018-01-08T14:15:50.608Z,4.20
2018-01-08T14:16:53.162Z,4.20
2018-01-08T14:17:55.680Z,4.20
2018-01-08T14:18:58.194Z,4.20
2018-01-08T14:20:00.689Z,4.20
2018-01-08T14:21:03.186Z,4.20
2018-01-08T14:22:05.730Z,4.10
2018-01-08T14:23:08.251Z,4.10
2018-01-08T14:24:10.814Z,4.10
2018-01-08T14:25:13.333Z,4.10
2018-01-08T14:26:15.834Z,4.10
2018-01-08T14:27:18.369Z,4.10
2018-01-08T14:28:20.861Z,4.00
2018-01-08T14:29:23.344Z,4.10
2018-01-08T14:30:25.856Z,4.00
2018-01-08T14:31:28.341Z,4.00
2018-01-08T14:32:30.859Z,4.00
2018-01-08T14:33:33.952Z,4.00
2018-01-08T14:34:36.452Z,4.00
2018-01-08T14:35:40.139Z,4.00
2018-01-08T14:36:42.629Z,3.90
2018-01-08T14:37:45.926Z,3.90
2018-01-08T14:38:49.454Z,3.90
2018-01-08T14:39:51.986Z,3.90
2018-01-08T14:40:54.524Z,3.80
2018-01-08T14:41:57.028Z,3.80
2018-01-08T14:43:00.372Z,3.80
2018-01-08T14:44:02.871Z,3.80
2018-01-08T14:45:05.379Z,3.70
2018-01-08T14:46:07.943Z,3.70
2018-01-08T14:47:10.446Z,3.70
2018-01-08T14:48:12.978Z,3.70
2018-01-08T14:49:16.239Z,3.70
2018-01-08T14:50:18.752Z,3.60
2018-01-08T14:51:22.052Z,3.60
2018-01-08T14:52:24.598Z,3.60
2018-01-08T14:53:27.100Z,3.60
2018-01-08T14:54:30.438Z,3.60
2018-01-08T14:55:33.765Z,3.50
2018-01-08T14:56:36.298Z,3.50